sensor_id;sensor_type;location;lat;lon;timestamp;pressure;altitude;pressure_sealevel;temperature;humidity
56681;BME280;42558;52.388;13.390;2024-03-07T00:01:23;102185.35;;;5.04;100.00
56681;BME280;42558;52.388;13.390;2024-03-07T00:03:56;102191.73;;;5.06;100.00
56681;BME280;42558;52.388;13.390;2024-03-07T00:06:26;102193.95;;;5.08;100.00
56681;BME280;42558;52.388;13.390;2024-03-07T00:08:56;102190.13;;;5.05;100.00
56681;BME280;42558;52.388;13.390;2024-03-07T00:11:26;102192.10;;;5.06;100.00
56681;BME280;42558;52.388;13.390;2024-03-07T00:13:56;102190.90;;;5.06;100.00
56681;BME280;42558;52.388;13.390;2024-03-07T00:16:24;102190.42;;;5.04;100.00
56681;BME280;42558;52.388;13.390;2024-03-07T00:18:52;102188.64;;;5.03;100.00
56681;BME280;42558;52.388;13.390;2024-03-07T00:21:22;102186.66;;;5.05;100.00
56681;BME280;42558;52.388;13.390;2024-03-07T00:23:51;102184.23;;;5.05;100.00
56681;BME280;42558;52.388;13.390;2024-03-07T00:26:21;102187.38;;;5.06;100.00
56681;BME280;42558;52.388;13.390;2024-03-07T00:28:51;102184.23;;;5.03;100.00
56681;BME280;42558;52.388;13.390;2024-03-07T00:31:21;102185.20;;;5.01;100.00
56681;BME280;42558;52.388;13.390;2024-03-07T00:33:51;102184.76;;;5.00;100.00
56681;BME280;42558;52.388;13.390;2024-03-07T00:36:38;102184.14;;;5.01;100.00
56681;BME280;42558;52.388;13.390;2024-03-07T00:39:08;102185.66;;;5.03;100.00
56681;BME280;42558;52.388;13.390;2024-03-07T00:41:41;102185.77;;;5.02;100.00
56681;BME280;42558;52.388;13.390;2024-03-07T00:44:11;102188.48;;;5.01;100.00
56681;BME280;42558;52.388;13.390;2024-03-07T00:46:41;102186.88;;;5.03;100.00
56681;BME280;42558;52.388;13.390;2024-03-07T00:49:11;102186.52;;;5.03;100.00
56681;BME280;42558;52.388;13.390;2024-03-07T00:51:40;102182.12;;;5.02;100.00
56681;BME280;42558;52.388;13.390;2024-03-07T00:54:08;102182.45;;;5.02;100.00
56681;BME280;42558;52.388;13.390;2024-03-07T00:56:36;102177.93;;;5.02;100.00
56681;BME280;42558;52.388;13.390;2024-03-07T00:59:05;102180.22;;;5.00;100.00
56681;BME280;42558;52.388;13.390;2024-03-07T01:01:33;102174.30;;;5.00;100.00
56681;BME280;42558;52.388;13.390;2024-03-07T01:04:06;102175.74;;;4.98;100.00
56681;BME280;42558;52.388;13.390;2024-03-07T01:06:37;102176.02;;;4.96;100.00
56681;BME280;42558;52.388;13.390;2024-03-07T01:09:07;102176.74;;;4.97;100.00
56681;BME280;42558;52.388;13.390;2024-03-07T01:11:44;102172.48;;;4.92;100.00
56681;BME280;42558;52.388;13.390;2024-03-07T01:14:15;102171.52;;;4.91;100.00
56681;BME280;42558;52.388;13.390;2024-03-07T01:16:45;102170.88;;;4.92;100.00
56681;BME280;42558;52.388;13.390;2024-03-07T01:19:16;102171.92;;;4.92;100.00
56681;BME280;42558;52.388;13.390;2024-03-07T01:21:46;102167.46;;;4.90;100.00
56681;BME280;42558;52.388;13.390;2024-03-07T01:24:17;102168.04;;;4.85;100.00
56681;BME280;42558;52.388;13.390;2024-03-07T01:26:48;102171.63;;;4.84;100.00
56681;BME280;42558;52.388;13.390;2024-03-07T01:29:18;102170.27;;;4.85;100.00
56681;BME280;42558;52.388;13.390;2024-03-07T01:31:48;102170.64;;;4.85;100.00
56681;BME280;42558;52.388;13.390;2024-03-07T01:34:18;102172.98;;;4.83;100.00
56681;BME280;42558;52.388;13.390;2024-03-07T01:36:48;102176.79;;;4.83;100.00
56681;BME280;42558;52.388;13.390;2024-03-07T01:39:18;102175.42;;;4.81;100.00
56681;BME280;42558;52.388;13.390;2024-03-07T01:41:49;102174.84;;;4.74;100.00
56681;BME280;42558;52.388;13.390;2024-03-07T01:44:19;102176.23;;;4.71;100.00
56681;BME280;42558;52.388;13.390;2024-03-07T01:46:49;102173.61;;;4.71;100.00
56681;BME280;42558;52.388;13.390;2024-03-07T01:49:20;102173.60;;;4.71;100.00
56681;BME280;42558;52.388;13.390;2024-03-07T01:51:51;102174.46;;;4.70;100.00
56681;BME280;42558;52.388;13.390;2024-03-07T01:54:21;102176.79;;;4.71;100.00
56681;BME280;42558;52.388;13.390;2024-03-07T01:56:52;102176.98;;;4.72;100.00
56681;BME280;42558;52.388;13.390;2024-03-07T01:59:23;102175.98;;;4.72;100.00
56681;BME280;42558;52.388;13.390;2024-03-07T02:01:54;102174.55;;;4.69;100.00
56681;BME280;42558;52.388;13.390;2024-03-07T02:04:24;102173.98;;;4.65;100.00
56681;BME280;42558;52.388;13.390;2024-03-07T02:06:54;102175.05;;;4.57;100.00
56681;BME280;42558;52.388;13.390;2024-03-07T02:09:24;102171.48;;;4.50;100.00
56681;BME280;42558;52.388;13.390;2024-03-07T02:11:55;102168.16;;;4.44;100.00
56681;BME280;42558;52.388;13.390;2024-03-07T02:14:26;102166.86;;;4.40;100.00
56681;BME280;42558;52.388;13.390;2024-03-07T02:16:56;102163.73;;;4.37;100.00
56681;BME280;42558;52.388;13.390;2024-03-07T02:19:26;102162.86;;;4.37;100.00
56681;BME280;42558;52.388;13.390;2024-03-07T02:21:56;102161.05;;;4.33;100.00
56681;BME280;42558;52.388;13.390;2024-03-07T02:24:24;102163.64;;;4.30;100.00
56681;BME280;42558;52.388;13.390;2024-03-07T02:26:53;102160.25;;;4.25;100.00
56681;BME280;42558;52.388;13.390;2024-03-07T02:29:21;102157.27;;;4.23;100.00
56681;BME280;42558;52.388;13.390;2024-03-07T02:31:49;102156.58;;;4.17;100.00
56681;BME280;42558;52.388;13.390;2024-03-07T02:34:19;102157.23;;;4.10;100.00
56681;BME280;42558;52.388;13.390;2024-03-07T02:36:47;102156.66;;;4.04;100.00
56681;BME280;42558;52.388;13.390;2024-03-07T02:39:17;102154.61;;;3.93;100.00
56681;BME280;42558;52.388;13.390;2024-03-07T02:41:47;102153.90;;;3.88;100.00
56681;BME280;42558;52.388;13.390;2024-03-07T02:44:18;102152.69;;;3.80;100.00
56681;BME280;42558;52.388;13.390;2024-03-07T02:46:49;102153.62;;;3.78;100.00
56681;BME280;42558;52.388;13.390;2024-03-07T02:49:19;102154.34;;;3.78;100.00
56681;BME280;42558;52.388;13.390;2024-03-07T02:51:50;102152.24;;;3.81;100.00
56681;BME280;42558;52.388;13.390;2024-03-07T02:54:20;102153.36;;;3.85;100.00
56681;BME280;42558;52.388;13.390;2024-03-07T02:56:50;102157.35;;;3.85;100.00
56681;BME280;42558;52.388;13.390;2024-03-07T02:59:18;102155.27;;;3.82;100.00
56681;BME280;42558;52.388;13.390;2024-03-07T03:01:47;102156.75;;;3.78;100.00
56681;BME280;42558;52.388;13.390;2024-03-07T03:04:15;102152.77;;;3.73;100.00
56681;BME280;42558;52.388;13.390;2024-03-07T03:06:44;102156.45;;;3.68;100.00
56681;BME280;42558;52.388;13.390;2024-03-07T03:09:12;102155.47;;;3.69;100.00
56681;BME280;42558;52.388;13.390;2024-03-07T03:11:45;102156.94;;;3.70;100.00
56681;BME280;42558;52.388;13.390;2024-03-07T03:14:12;102154.41;;;3.71;100.00
56681;BME280;42558;52.388;13.390;2024-03-07T03:16:45;102156.45;;;3.70;100.00
56681;BME280;42558;52.388;13.390;2024-03-07T03:19:17;102157.73;;;3.71;100.00
56681;BME280;42558;52.388;13.390;2024-03-07T03:21:47;102159.89;;;3.75;100.00
56681;BME280;42558;52.388;13.390;2024-03-07T03:24:18;102162.15;;;3.78;100.00
56681;BME280;42558;52.388;13.390;2024-03-07T03:26:48;102162.17;;;3.79;100.00
56681;BME280;42558;52.388;13.390;2024-03-07T03:29:17;102162.59;;;3.76;100.00
56681;BME280;42558;52.388;13.390;2024-03-07T03:31:48;102163.22;;;3.73;100.00
56681;BME280;42558;52.388;13.390;2024-03-07T03:34:18;102162.66;;;3.69;100.00
56681;BME280;42558;52.388;13.390;2024-03-07T03:36:49;102161.25;;;3.69;100.00
56681;BME280;42558;52.388;13.390;2024-03-07T03:39:19;102168.23;;;3.70;100.00
56681;BME280;42558;52.388;13.390;2024-03-07T03:41:50;102170.67;;;3.67;100.00
56681;BME280;42558;52.388;13.390;2024-03-07T03:44:20;102170.84;;;3.65;100.00
56681;BME280;42558;52.388;13.390;2024-03-07T03:46:50;102171.86;;;3.64;100.00
56681;BME280;42558;52.388;13.390;2024-03-07T03:49:20;102173.97;;;3.62;100.00
56681;BME280;42558;52.388;13.390;2024-03-07T03:51:50;102171.13;;;3.55;100.00
56681;BME280;42558;52.388;13.390;2024-03-07T03:54:20;102179.75;;;3.49;100.00
56681;BME280;42558;52.388;13.390;2024-03-07T03:56:49;102174.25;;;3.42;100.00
56681;BME280;42558;52.388;13.390;2024-03-07T03:59:20;102174.91;;;3.33;100.00
56681;BME280;42558;52.388;13.390;2024-03-07T04:01:50;102177.26;;;3.27;100.00
56681;BME280;42558;52.388;13.390;2024-03-07T04:04:20;102177.85;;;3.17;100.00
56681;BME280;42558;52.388;13.390;2024-03-07T04:06:50;102179.67;;;3.08;100.00
56681;BME280;42558;52.388;13.390;2024-03-07T04:09:20;102183.09;;;2.99;100.00
56681;BME280;42558;52.388;13.390;2024-03-07T04:11:50;102179.88;;;2.90;100.00
56681;BME280;42558;52.388;13.390;2024-03-07T04:14:20;102186.13;;;2.90;100.00
56681;BME280;42558;52.388;13.390;2024-03-07T04:16:50;102184.63;;;2.84;100.00
56681;BME280;42558;52.388;13.390;2024-03-07T04:19:20;102189.34;;;2.76;100.00
56681;BME280;42558;52.388;13.390;2024-03-07T04:21:48;102189.99;;;2.68;100.00
56681;BME280;42558;52.388;13.390;2024-03-07T04:24:17;102191.75;;;2.63;100.00
56681;BME280;42558;52.388;13.390;2024-03-07T04:26:45;102192.50;;;2.54;100.00
56681;BME280;42558;52.388;13.390;2024-03-07T04:29:13;102196.39;;;2.47;100.00
56681;BME280;42558;52.388;13.390;2024-03-07T04:31:42;102192.30;;;2.43;100.00
56681;BME280;42558;52.388;13.390;2024-03-07T04:34:10;102190.02;;;2.38;100.00
56681;BME280;42558;52.388;13.390;2024-03-07T04:36:39;102190.80;;;2.34;100.00
56681;BME280;42558;52.388;13.390;2024-03-07T04:39:07;102195.91;;;2.28;100.00
56681;BME280;42558;52.388;13.390;2024-03-07T04:41:44;102195.66;;;2.25;100.00
56681;BME280;42558;52.388;13.390;2024-03-07T04:44:14;102194.58;;;2.27;100.00
56681;BME280;42558;52.388;13.390;2024-03-07T04:46:44;102194.16;;;2.20;100.00
56681;BME280;42558;52.388;13.390;2024-03-07T04:49:14;102199.77;;;2.16;100.00
56681;BME280;42558;52.388;13.390;2024-03-07T04:51:44;102199.32;;;2.10;100.00
56681;BME280;42558;52.388;13.390;2024-03-07T04:54:14;102201.73;;;2.05;100.00
56681;BME280;42558;52.388;13.390;2024-03-07T04:56:45;102201.38;;;2.00;100.00
56681;BME280;42558;52.388;13.390;2024-03-07T04:59:18;102199.75;;;1.94;100.00
56681;BME280;42558;52.388;13.390;2024-03-07T05:01:50;102203.57;;;1.89;100.00
56681;BME280;42558;52.388;13.390;2024-03-07T05:04:20;102202.97;;;1.88;100.00
56681;BME280;42558;52.388;13.390;2024-03-07T05:06:50;102207.33;;;1.83;100.00
56681;BME280;42558;52.388;13.390;2024-03-07T05:09:19;102208.48;;;1.80;100.00
56681;BME280;42558;52.388;13.390;2024-03-07T05:11:53;102209.04;;;1.79;100.00
56681;BME280;42558;52.388;13.390;2024-03-07T05:14:24;102213.94;;;1.72;100.00
56681;BME280;42558;52.388;13.390;2024-03-07T05:16:55;102210.14;;;1.63;100.00
56681;BME280;42558;52.388;13.390;2024-03-07T05:19:38;102213.30;;;1.66;100.00
56681;BME280;42558;52.388;13.390;2024-03-07T05:22:08;102216.42;;;1.63;100.00
56681;BME280;42558;52.388;13.390;2024-03-07T05:24:43;102220.29;;;1.62;100.00
56681;BME280;42558;52.388;13.390;2024-03-07T05:27:13;102220.42;;;1.59;100.00
56681;BME280;42558;52.388;13.390;2024-03-07T05:29:43;102220.02;;;1.51;100.00
56681;BME280;42558;52.388;13.390;2024-03-07T05:32:24;102220.52;;;1.53;100.00
56681;BME280;42558;52.388;13.390;2024-03-07T05:34:57;102224.33;;;1.53;100.00
56681;BME280;42558;52.388;13.390;2024-03-07T05:37:27;102220.75;;;1.49;100.00
56681;BME280;42558;52.388;13.390;2024-03-07T05:39:57;102226.30;;;1.47;100.00
56681;BME280;42558;52.388;13.390;2024-03-07T05:42:27;102227.19;;;1.40;100.00
56681;BME280;42558;52.388;13.390;2024-03-07T05:44:59;102231.33;;;1.40;100.00
56681;BME280;42558;52.388;13.390;2024-03-07T05:47:29;102230.92;;;1.42;100.00
56681;BME280;42558;52.388;13.390;2024-03-07T05:49:58;102232.83;;;1.41;100.00
56681;BME280;42558;52.388;13.390;2024-03-07T05:52:26;102233.10;;;1.43;100.00
56681;BME280;42558;52.388;13.390;2024-03-07T05:54:54;102235.70;;;1.48;100.00
56681;BME280;42558;52.388;13.390;2024-03-07T05:57:26;102238.59;;;1.49;100.00
56681;BME280;42558;52.388;13.390;2024-03-07T05:59:54;102240.48;;;1.44;100.00
56681;BME280;42558;52.388;13.390;2024-03-07T06:02:26;102239.87;;;1.43;100.00
56681;BME280;42558;52.388;13.390;2024-03-07T06:04:57;102239.52;;;1.43;100.00
56681;BME280;42558;52.388;13.390;2024-03-07T06:07:27;102240.71;;;1.40;100.00
56681;BME280;42558;52.388;13.390;2024-03-07T06:09:57;102241.42;;;1.45;100.00
56681;BME280;42558;52.388;13.390;2024-03-07T06:12:27;102242.05;;;1.44;100.00
56681;BME280;42558;52.388;13.390;2024-03-07T06:14:57;102245.14;;;1.49;100.00
56681;BME280;42558;52.388;13.390;2024-03-07T06:17:28;102245.59;;;1.50;100.00
56681;BME280;42558;52.388;13.390;2024-03-07T06:19:58;102250.50;;;1.48;100.00
56681;BME280;42558;52.388;13.390;2024-03-07T06:22:29;102254.60;;;1.50;100.00
56681;BME280;42558;52.388;13.390;2024-03-07T06:24:59;102255.05;;;1.52;100.00
56681;BME280;42558;52.388;13.390;2024-03-07T06:27:36;102253.61;;;1.53;100.00
56681;BME280;42558;52.388;13.390;2024-03-07T06:30:08;102255.10;;;1.52;100.00
56681;BME280;42558;52.388;13.390;2024-03-07T06:32:39;102253.61;;;1.51;100.00
56681;BME280;42558;52.388;13.390;2024-03-07T06:35:09;102257.73;;;1.48;100.00
56681;BME280;42558;52.388;13.390;2024-03-07T06:37:39;102256.61;;;1.45;100.00
56681;BME280;42558;52.388;13.390;2024-03-07T06:40:11;102256.54;;;1.46;100.00
56681;BME280;42558;52.388;13.390;2024-03-07T06:42:44;102257.77;;;1.48;100.00
56681;BME280;42558;52.388;13.390;2024-03-07T06:45:12;102261.98;;;1.49;100.00
56681;BME280;42558;52.388;13.390;2024-03-07T06:47:41;102262.41;;;1.48;100.00
56681;BME280;42558;52.388;13.390;2024-03-07T06:50:10;102262.59;;;1.55;100.00
56681;BME280;42558;52.388;13.390;2024-03-07T06:52:56;102259.61;;;1.61;100.00
56681;BME280;42558;52.388;13.390;2024-03-07T06:55:26;102256.61;;;1.68;100.00
56681;BME280;42558;52.388;13.390;2024-03-07T06:57:54;102258.95;;;1.76;100.00
56681;BME280;42558;52.388;13.390;2024-03-07T07:00:24;102260.27;;;1.82;100.00
56681;BME280;42558;52.388;13.390;2024-03-07T07:02:56;102260.46;;;2.23;100.00
56681;BME280;42558;52.388;13.390;2024-03-07T07:05:27;102261.34;;;2.45;100.00
56681;BME280;42558;52.388;13.390;2024-03-07T07:07:57;102262.70;;;2.53;100.00
56681;BME280;42558;52.388;13.390;2024-03-07T07:10:27;102256.27;;;2.67;100.00
56681;BME280;42558;52.388;13.390;2024-03-07T07:12:57;102257.34;;;2.80;100.00
56681;BME280;42558;52.388;13.390;2024-03-07T07:15:26;102256.72;;;3.14;100.00
56681;BME280;42558;52.388;13.390;2024-03-07T07:17:56;102255.77;;;3.08;100.00
56681;BME280;42558;52.388;13.390;2024-03-07T07:20:27;102263.61;;;2.80;100.00
56681;BME280;42558;52.388;13.390;2024-03-07T07:22:57;102262.61;;;2.64;100.00
56681;BME280;42558;52.388;13.390;2024-03-07T07:25:30;102266.38;;;2.98;100.00
56681;BME280;42558;52.388;13.390;2024-03-07T07:28:02;102263.51;;;2.79;100.00
56681;BME280;42558;52.388;13.390;2024-03-07T07:30:34;102263.87;;;2.79;100.00
56681;BME280;42558;52.388;13.390;2024-03-07T07:33:04;102259.54;;;2.97;100.00
56681;BME280;42558;52.388;13.390;2024-03-07T07:35:34;102258.84;;;3.27;100.00
56681;BME280;42558;52.388;13.390;2024-03-07T07:38:05;102259.52;;;2.89;100.00
56681;BME280;42558;52.388;13.390;2024-03-07T07:40:37;102261.38;;;2.81;100.00
56681;BME280;42558;52.388;13.390;2024-03-07T07:43:07;102254.98;;;2.99;100.00
56681;BME280;42558;52.388;13.390;2024-03-07T07:45:37;102253.81;;;3.28;100.00
56681;BME280;42558;52.388;13.390;2024-03-07T07:48:08;102252.36;;;3.37;100.00
56681;BME280;42558;52.388;13.390;2024-03-07T07:50:38;102247.49;;;3.64;100.00
56681;BME280;42558;52.388;13.390;2024-03-07T07:53:08;102245.05;;;3.58;100.00
56681;BME280;42558;52.388;13.390;2024-03-07T07:55:39;102246.81;;;3.61;100.00
56681;BME280;42558;52.388;13.390;2024-03-07T07:58:10;102245.28;;;3.59;100.00
56681;BME280;42558;52.388;13.390;2024-03-07T08:00:39;102247.21;;;3.68;100.00
56681;BME280;42558;52.388;13.390;2024-03-07T08:03:13;102244.72;;;3.72;100.00
56681;BME280;42558;52.388;13.390;2024-03-07T08:05:45;102242.93;;;3.58;100.00
56681;BME280;42558;52.388;13.390;2024-03-07T08:08:15;102243.81;;;3.40;100.00
56681;BME280;42558;52.388;13.390;2024-03-07T08:10:48;102246.21;;;3.68;100.00
56681;BME280;42558;52.388;13.390;2024-03-07T08:13:18;102241.80;;;4.21;100.00
56681;BME280;42558;52.388;13.390;2024-03-07T08:15:48;102242.45;;;4.68;100.00
56681;BME280;42558;52.388;13.390;2024-03-07T08:18:18;102245.70;;;4.53;100.00
56681;BME280;42558;52.388;13.390;2024-03-07T08:20:50;102238.67;;;4.30;100.00
56681;BME280;42558;52.388;13.390;2024-03-07T08:23:25;102242.05;;;4.36;100.00
56681;BME280;42558;52.388;13.390;2024-03-07T08:25:56;102239.52;;;4.77;100.00
56681;BME280;42558;52.388;13.390;2024-03-07T08:28:26;102238.16;;;5.16;100.00
56681;BME280;42558;52.388;13.390;2024-03-07T08:30:56;102233.20;;;5.41;100.00
56681;BME280;42558;52.388;13.390;2024-03-07T08:33:26;102233.86;;;5.10;100.00
56681;BME280;42558;52.388;13.390;2024-03-07T08:35:56;102240.35;;;5.62;100.00
56681;BME280;42558;52.388;13.390;2024-03-07T08:38:26;102237.44;;;5.99;100.00
56681;BME280;42558;52.388;13.390;2024-03-07T08:40:56;102233.92;;;5.99;100.00
56681;BME280;42558;52.388;13.390;2024-03-07T08:43:26;102235.95;;;6.04;100.00
56681;BME280;42558;52.388;13.390;2024-03-07T08:45:57;102237.65;;;6.10;99.56
56681;BME280;42558;52.388;13.390;2024-03-07T08:48:27;102236.27;;;5.52;99.66
56681;BME280;42558;52.388;13.390;2024-03-07T08:50:57;102231.80;;;5.62;99.97
56681;BME280;42558;52.388;13.390;2024-03-07T08:53:28;102237.77;;;5.96;98.81
56681;BME280;42558;52.388;13.390;2024-03-07T08:55:56;102232.45;;;6.07;96.02
56681;BME280;42558;52.388;13.390;2024-03-07T08:58:26;102233.40;;;5.90;94.69
56681;BME280;42558;52.388;13.390;2024-03-07T09:00:54;102229.97;;;6.00;94.24
56681;BME280;42558;52.388;13.390;2024-03-07T09:03:22;102230.85;;;6.06;93.96
56681;BME280;42558;52.388;13.390;2024-03-07T09:05:51;102232.30;;;5.83;90.87
56681;BME280;42558;52.388;13.390;2024-03-07T09:08:22;102232.13;;;5.59;93.67
56681;BME280;42558;52.388;13.390;2024-03-07T09:10:52;102230.27;;;6.08;91.72
56681;BME280;42558;52.388;13.390;2024-03-07T09:13:25;102225.98;;;6.38;89.01
56681;BME280;42558;52.388;13.390;2024-03-07T09:15:55;102223.15;;;6.25;86.35
56681;BME280;42558;52.388;13.390;2024-03-07T09:18:25;102222.43;;;6.34;88.26
56681;BME280;42558;52.388;13.390;2024-03-07T09:20:55;102219.38;;;6.72;84.75
56681;BME280;42558;52.388;13.390;2024-03-07T09:23:25;102217.17;;;6.83;85.28
56681;BME280;42558;52.388;13.390;2024-03-07T09:25:55;102218.92;;;6.60;81.80
56681;BME280;42558;52.388;13.390;2024-03-07T09:28:25;102221.70;;;6.18;82.25
56681;BME280;42558;52.388;13.390;2024-03-07T09:30:55;102218.60;;;6.38;83.06
56681;BME280;42558;52.388;13.390;2024-03-07T09:33:25;102214.13;;;6.92;81.41
56681;BME280;42558;52.388;13.390;2024-03-07T09:35:58;102210.40;;;7.46;80.85
56681;BME280;42558;52.388;13.390;2024-03-07T09:38:28;102210.27;;;7.06;76.94
56681;BME280;42558;52.388;13.390;2024-03-07T09:40:58;102214.66;;;6.63;79.52
56681;BME280;42558;52.388;13.390;2024-03-07T09:43:29;102208.83;;;7.15;76.76
56681;BME280;42558;52.388;13.390;2024-03-07T09:46:03;102206.53;;;7.49;76.59
56681;BME280;42558;52.388;13.390;2024-03-07T09:48:35;102201.40;;;7.62;77.72
56681;BME280;42558;52.388;13.390;2024-03-07T09:51:08;102200.45;;;8.01;75.43
56681;BME280;42558;52.388;13.390;2024-03-07T09:53:39;102199.13;;;7.89;72.06
56681;BME280;42558;52.388;13.390;2024-03-07T09:56:12;102197.27;;;6.97;73.97
56681;BME280;42558;52.388;13.390;2024-03-07T09:58:49;102196.85;;;7.62;73.61
56681;BME280;42558;52.388;13.390;2024-03-07T10:01:26;102195.10;;;8.18;74.27
56681;BME280;42558;52.388;13.390;2024-03-07T10:04:01;102188.02;;;8.23;71.39
56681;BME280;42558;52.388;13.390;2024-03-07T10:06:41;102187.81;;;7.75;73.75
56681;BME280;42558;52.388;13.390;2024-03-07T10:09:11;102190.02;;;8.10;69.77
56681;BME280;42558;52.388;13.390;2024-03-07T10:11:45;102185.01;;;7.46;68.64
56681;BME280;42558;52.388;13.390;2024-03-07T10:14:18;102183.84;;;7.16;67.67
56681;BME280;42558;52.388;13.390;2024-03-07T10:16:48;102182.48;;;7.06;68.30
56681;BME280;42558;52.388;13.390;2024-03-07T10:22:00;102186.75;;;6.87;69.40
56681;BME280;42558;52.388;13.390;2024-03-07T10:24:28;102185.27;;;6.95;69.31
56681;BME280;42558;52.388;13.390;2024-03-07T10:26:57;102183.08;;;7.82;68.28
56681;BME280;42558;52.388;13.390;2024-03-07T10:29:25;102180.34;;;7.19;66.30
56681;BME280;42558;52.388;13.390;2024-03-07T10:31:53;102181.66;;;7.35;68.73
56681;BME280;42558;52.388;13.390;2024-03-07T10:34:34;102180.60;;;7.63;69.00
56681;BME280;42558;52.388;13.390;2024-03-07T10:37:04;102169.52;;;8.18;66.17
56681;BME280;42558;52.388;13.390;2024-03-07T10:39:34;102168.18;;;7.78;64.84
56681;BME280;42558;52.388;13.390;2024-03-07T10:42:03;102165.55;;;7.78;65.50
56681;BME280;42558;52.388;13.390;2024-03-07T10:44:50;102158.35;;;7.81;66.41
56681;BME280;42558;52.388;13.390;2024-03-07T10:47:27;102152.61;;;8.31;65.54
56681;BME280;42558;52.388;13.390;2024-03-07T10:53:32;102149.94;;;8.29;64.98
56681;BME280;42558;52.388;13.390;2024-03-07T10:56:43;102142.52;;;8.52;63.32
56681;BME280;42558;52.388;13.390;2024-03-07T10:59:20;102152.15;;;7.61;62.72
56681;BME280;42558;52.388;13.390;2024-03-07T11:04:47;102143.48;;;7.77;61.04
56681;BME280;42558;52.388;13.390;2024-03-07T11:07:17;102145.24;;;8.04;61.48
56681;BME280;42558;52.388;13.390;2024-03-07T11:09:52;102144.41;;;8.51;62.87
56681;BME280;42558;52.388;13.390;2024-03-07T11:12:24;102141.85;;;8.88;60.85
56681;BME280;42558;52.388;13.390;2024-03-07T11:14:58;102139.44;;;8.19;60.95
56681;BME280;42558;52.388;13.390;2024-03-07T11:17:29;102138.00;;;8.25;62.09
56681;BME280;42558;52.388;13.390;2024-03-07T11:20:26;102136.52;;;8.55;60.64
56681;BME280;42558;52.388;13.390;2024-03-07T11:22:56;102139.33;;;7.94;61.33
56681;BME280;42558;52.388;13.390;2024-03-07T11:25:27;102131.80;;;8.75;61.25
56681;BME280;42558;52.388;13.390;2024-03-07T11:28:00;102124.91;;;9.28;60.71
56681;BME280;42558;52.388;13.390;2024-03-07T11:30:31;102116.88;;;9.29;58.99
56681;BME280;42558;52.388;13.390;2024-03-07T11:33:02;102115.90;;;9.22;58.83
56681;BME280;42558;52.388;13.390;2024-03-07T11:35:34;102117.38;;;8.99;60.12
56681;BME280;42558;52.388;13.390;2024-03-07T11:38:07;102113.98;;;9.06;59.77
56681;BME280;42558;52.388;13.390;2024-03-07T11:43:08;102114.16;;;8.48;60.65
56681;BME280;42558;52.388;13.390;2024-03-07T11:45:38;102109.42;;;8.40;60.62
56681;BME280;42558;52.388;13.390;2024-03-07T11:48:21;102112.42;;;7.87;60.71
56681;BME280;42558;52.388;13.390;2024-03-07T11:50:52;102106.70;;;8.23;62.17
56681;BME280;42558;52.388;13.390;2024-03-07T11:53:24;102114.19;;;7.88;60.79
56681;BME280;42558;52.388;13.390;2024-03-07T11:55:54;102109.84;;;7.88;62.34
56681;BME280;42558;52.388;13.390;2024-03-07T11:58:22;102107.48;;;8.28;61.28
56681;BME280;42558;52.388;13.390;2024-03-07T12:00:51;102109.54;;;7.86;60.71
56681;BME280;42558;52.388;13.390;2024-03-07T12:03:22;102101.36;;;7.50;61.34
56681;BME280;42558;52.388;13.390;2024-03-07T12:05:51;102101.29;;;7.66;62.93
56681;BME280;42558;52.388;13.390;2024-03-07T12:08:22;102097.02;;;7.99;63.05
56681;BME280;42558;52.388;13.390;2024-03-07T12:10:55;102085.83;;;8.34;62.80
56681;BME280;42558;52.388;13.390;2024-03-07T12:13:28;102087.01;;;7.98;61.46
56681;BME280;42558;52.388;13.390;2024-03-07T12:15:57;102082.95;;;7.78;61.02
56681;BME280;42558;52.388;13.390;2024-03-07T12:18:29;102088.91;;;7.38;60.10
56681;BME280;42558;52.388;13.390;2024-03-07T12:20:59;102087.05;;;7.28;60.97
56681;BME280;42558;52.388;13.390;2024-03-07T12:23:33;102085.34;;;7.55;61.65
56681;BME280;42558;52.388;13.390;2024-03-07T12:26:04;102086.48;;;7.30;61.53
56681;BME280;42558;52.388;13.390;2024-03-07T12:28:35;102079.34;;;7.42;60.60
56681;BME280;42558;52.388;13.390;2024-03-07T12:31:09;102079.58;;;7.21;58.52
56681;BME280;42558;52.388;13.390;2024-03-07T12:33:46;102072.80;;;7.49;60.15
56681;BME280;42558;52.388;13.390;2024-03-07T12:36:22;102068.50;;;7.69;57.61
56681;BME280;42558;52.388;13.390;2024-03-07T12:38:56;102067.73;;;7.86;58.34
56681;BME280;42558;52.388;13.390;2024-03-07T12:41:28;102063.20;;;7.94;59.20
56681;BME280;42558;52.388;13.390;2024-03-07T12:43:58;102062.58;;;7.69;56.28
56681;BME280;42558;52.388;13.390;2024-03-07T12:46:28;102061.25;;;7.82;53.62
56681;BME280;42558;52.388;13.390;2024-03-07T12:48:59;102055.66;;;7.83;52.53
56681;BME280;42558;52.388;13.390;2024-03-07T12:51:29;102051.31;;;7.64;52.57
56681;BME280;42558;52.388;13.390;2024-03-07T12:53:59;102048.86;;;7.45;51.62
56681;BME280;42558;52.388;13.390;2024-03-07T12:56:26;102046.65;;;7.43;52.11
56681;BME280;42558;52.388;13.390;2024-03-07T12:58:56;102045.92;;;7.69;52.24
56681;BME280;42558;52.388;13.390;2024-03-07T13:01:27;102043.95;;;7.34;53.16
56681;BME280;42558;52.388;13.390;2024-03-07T13:03:54;102046.47;;;7.80;54.02
56681;BME280;42558;52.388;13.390;2024-03-07T13:06:24;102043.74;;;7.90;54.53
56681;BME280;42558;52.388;13.390;2024-03-07T13:08:59;102044.01;;;7.80;55.86
56681;BME280;42558;52.388;13.390;2024-03-07T13:11:29;102040.40;;;7.90;53.16
56681;BME280;42558;52.388;13.390;2024-03-07T13:14:02;102042.17;;;7.64;51.82